CYTE

Cape Dorset Airport

Cape Dorset, Canada
METAR CYTE 170606Z AUTO 30015KT 9SM OVC026 M18/M21 A2948 RMK SLP991
Observed Flight Rules
Dec-17 @ 06:06 UTC (15 minutes ago) Marginal Visual Flight Rules
Wind Visibility Clouds
300° at 15 knots 9 miles
  • Overcast at 2,600' AGL
Temperatures Readings
Current -18°C / 0°F
Dewpoint -21°C / -6°F
Humidity 78%
Altimeter 29.48" Hg
Pressure 999.1 hPa
Elevation 47
METAR CYTE 170606Z AUTO 30015KT 9SM OVC026 M18/M21 A2948 RMK SLP991
Observed Flight Rules
Dec-17 @ 06:06 UTC
(15 minutes ago)
MVFR
Wind Visibility
300° at 15 knots 9 miles
Clouds
  • Overcast at 2,600' AGL
Temperature Dewpoint
-18°C / 0°F -21°C / -6°F
Humidity Altimeter Pressure
78% 29.48" Hg 999.1 hPa